Time;durP1;ratioP1;P1;durP2;ratioP2;P2;SDS_P1;SDS_P2;PMS_P1;PMS_P2;Temp;Humidity;BMP_temperature;BMP_pressure;BME280_temperature;BME280_humidity;BME280_pressure;Samples;Min_cycle;Max_cycle;Signal;HPM_P1;HPM_P2
2022/06/03 00:02:33;;;;;;;3.67;2.90;;;16.20;1.00;;;;;;7361297;19;20018;-59
2022/06/03 00:05:25;;;;;;;4.40;3.00;;;16.20;1.00;;;;;;7361853;19;20010;-58
2022/06/03 00:08:10;;;;;;;4.60;2.97;;;16.10;1.00;;;;;;7366188;19;20388;-59
2022/06/03 00:11:04;;;;;;;3.60;2.70;;;16.10;1.00;;;;;;7364333;19;20018;-58
2022/06/03 00:13:58;;;;;;;3.38;2.95;;;16.00;1.00;;;;;;7363204;19;20018;-58
2022/06/03 00:16:41;;;;;;;3.97;3.00;;;16.00;1.00;;;;;;7364806;19;20011;-58
2022/06/03 00:19:40;;;;;;;10.13;3.17;;;16.00;1.00;;;;;;7364599;19;20098;-60
2022/06/03 00:22:25;;;;;;;2.92;2.72;;;16.00;1.00;;;;;;7362930;19;21611;-59
2022/06/03 00:25:15;;;;;;;3.03;2.83;;;15.80;1.00;;;;;;7360197;19;20114;-61
2022/06/03 00:28:05;;;;;;;4.90;3.05;;;15.70;1.00;;;;;;7365279;19;20036;-59
2022/06/03 00:30:47;;;;;;;3.40;2.78;;;15.70;1.00;;;;;;7363571;19;20014;-60
2022/06/03 00:33:50;;;;;;;4.47;3.05;;;15.60;1.00;;;;;;7383505;19;20039;-58
2022/06/03 00:36:50;;;;;;;3.70;3.30;;;15.60;1.00;;;;;;7363000;19;20576;-60
2022/06/03 00:39:41;;;;;;;6.55;3.03;;;15.60;1.00;;;;;;7364084;19;20010;-59
2022/06/03 00:42:32;;;;;;;4.18;3.20;;;15.50;1.00;;;;;;7362520;19;20043;-59
2022/06/03 00:45:20;;;;;;;3.90;2.88;;;15.50;1.00;;;;;;7360867;19;20014;-59
2022/06/03 00:48:05;;;;;;;3.35;2.80;;;15.50;1.00;;;;;;7364328;19;20018;-58
2022/06/03 00:50:53;;;;;;;;;;;15.50;1.00;;;;;;7363872;19;20360;-58
2022/06/03 00:53:46;;;;;;;8.93;2.95;;;15.60;1.00;;;;;;7361521;19;19962;-58
2022/06/03 00:56:48;;;;;;;3.88;2.88;;;15.50;1.00;;;;;;7362568;19;20018;-59
2022/06/03 00:59:34;;;;;;;3.75;2.70;;;15.60;1.00;;;;;;7363501;19;20010;-59
2022/06/03 01:02:22;;;;;;;4.15;3.05;;;15.60;1.00;;;;;;7362825;19;20041;-59
2022/06/03 01:05:06;;;;;;;3.33;3.03;;;15.50;1.00;;;;;;7359066;19;20010;-59
2022/06/03 01:07:53;;;;;;;4.32;3.60;;;15.60;1.00;;;;;;7363373;19;20015;-58
2022/06/03 01:10:34;;;;;;;4.25;3.20;;;15.60;1.00;;;;;;7361235;19;20018;-59
2022/06/03 01:13:27;;;;;;;3.30;2.78;;;15.50;1.00;;;;;;7357991;19;20011;-58
2022/06/03 01:16:02;;;;;;;4.78;3.30;;;15.40;1.00;;;;;;7360943;19;20018;-58
2022/06/03 01:18:45;;;;;;;4.53;3.03;;;15.50;1.00;;;;;;7370142;19;20014;-59
2022/06/03 01:21:30;;;;;;;4.35;2.80;;;15.50;1.00;;;;;;7385302;19;20040;-59
2022/06/03 01:24:34;;;;;;;3.25;2.92;;;15.50;1.00;;;;;;7359425;19;20018;-59
2022/06/03 01:27:35;;;;;;;3.80;3.33;;;15.40;1.00;;;;;;7360880;19;20027;-59
2022/06/03 01:30:24;;;;;;;4.25;3.08;;;15.50;1.00;;;;;;7362719;19;20031;-58
2022/06/03 01:33:22;;;;;;;5.78;3.30;;;15.40;1.00;;;;;;7360101;19;20039;-58
2022/06/03 01:36:23;;;;;;;4.32;3.30;;;15.40;1.00;;;;;;7359150;19;20014;-58
2022/06/03 01:39:17;;;;;;;4.13;3.20;;;15.40;1.00;;;;;;7362439;19;20011;-58
2022/06/03 01:42:08;;;;;;;5.13;3.00;;;15.30;1.00;;;;;;7361953;19;20015;-59
2022/06/03 01:44:56;;;;;;;7.85;3.80;;;15.20;1.00;;;;;;7356633;19;20040;-59
2022/06/03 01:48:01;;;;;;;5.72;3.53;;;15.10;1.00;;;;;;7359706;19;20063;-58
2022/06/03 01:50:50;;;;;;;4.55;3.53;;;15.10;1.00;;;;;;7358194;19;20011;-59
2022/06/03 01:53:41;;;;;;;3.33;3.03;;;15.00;1.00;;;;;;7360129;19;20305;-59
2022/06/03 01:56:53;;;;;;;4.40;3.53;;;15.00;1.00;;;;;;7359253;19;20014;-59
2022/06/03 02:00:09;;;;;;;5.07;3.28;;;15.00;1.00;;;;;;7359140;19;20026;-58
2022/06/03 02:03:08;;;;;;;4.00;3.42;;;15.00;1.00;;;;;;7357529;19;20068;-58
2022/06/03 02:06:06;;;;;;;4.40;3.15;;;15.10;1.00;;;;;;7358780;19;20388;-58
2022/06/03 02:09:10;;;;;;;5.95;3.72;;;14.90;1.00;;;;;;7360925;19;20446;-58
2022/06/03 02:11:54;;;;;;;5.97;3.72;;;15.00;1.00;;;;;;7359517;19;20018;-58
2022/06/03 02:15:00;;;;;;;3.97;3.15;;;15.00;1.00;;;;;;7356794;19;20522;-59
2022/06/03 02:17:59;;;;;;;8.95;3.70;;;14.90;1.00;;;;;;7360892;19;20372;-59
2022/06/03 02:21:00;;;;;;;4.18;3.45;;;14.90;1.00;;;;;;7359533;19;20098;-59
2022/06/03 02:23:55;;;;;;;4.75;3.38;;;14.90;1.00;;;;;;7360745;19;20018;-59
2022/06/03 02:26:50;;;;;;;3.42;3.10;;;14.90;1.00;;;;;;7367432;19;20010;-58
2022/06/03 02:33:27;;;;;;;5.72;3.42;;;14.90;1.00;;;;;;7365547;19;20006;-58
2022/06/03 02:36:47;;;;;;;6.45;3.40;;;14.90;1.00;;;;;;7365322;19;20011;-59
2022/06/03 02:39:45;;;;;;;7.82;3.45;;;14.80;1.00;;;;;;7366585;19;20070;-58
2022/06/03 02:42:48;;;;;;;5.45;3.17;;;14.70;1.00;;;;;;7366735;19;20089;-59
2022/06/03 02:46:11;;;;;;;5.93;3.28;;;14.70;1.00;;;;;;7263394;19;2004293;-59
2022/06/03 02:49:06;;;;;;;6.30;4.07;;;14.60;1.00;;;;;;7369295;19;20022;-58
2022/06/03 02:52:04;;;;;;;9.40;4.72;;;14.70;1.00;;;;;;7366792;19;20026;-59
2022/06/03 02:55:11;;;;;;;6.82;4.45;;;14.80;1.00;;;;;;7362075;19;20091;-58
2022/06/03 02:57:58;;;;;;;6.43;4.20;;;14.70;1.00;;;;;;7366497;19;20022;-60
2022/06/03 03:00:39;;;;;;;4.05;3.22;;;14.60;1.00;;;;;;7386394;19;20018;-58
2022/06/03 03:03:39;;;;;;;5.63;3.50;;;14.60;1.00;;;;;;7364966;19;20021;-60
2022/06/03 03:06:36;;;;;;;3.50;3.20;;;14.80;1.00;;;;;;7365331;19;20040;-58
2022/06/03 03:09:44;;;;;;;5.28;3.30;;;14.70;1.00;;;;;;7363204;19;20045;-59
2022/06/03 03:12:44;;;;;;;4.68;3.63;;;14.70;1.00;;;;;;7365757;19;20006;-59
2022/06/03 03:15:35;;;;;;;5.10;3.10;;;14.70;1.00;;;;;;7364125;19;20014;-59
2022/06/03 03:18:26;;;;;;;4.15;3.10;;;14.90;1.00;;;;;;7368027;19;20014;-59
2022/06/03 03:21:18;;;;;;;3.28;2.97;;;14.80;1.00;;;;;;7365497;19;20014;-59
2022/06/03 03:24:22;;;;;;;3.55;3.25;;;14.80;1.00;;;;;;7362448;19;20018;-59
2022/06/03 03:27:16;;;;;;;3.80;3.33;;;14.80;1.00;;;;;;7365288;19;20018;-59
2022/06/03 03:30:03;;;;;;;5.00;3.28;;;14.90;1.00;;;;;;7366421;19;20053;-59
2022/06/03 03:33:01;;;;;;;6.60;3.47;;;14.90;1.00;;;;;;7363641;19;20470;-59
2022/06/03 03:35:56;;;;;;;4.57;3.38;;;15.10;1.00;;;;;;7362939;19;20014;-59
2022/06/03 03:38:52;;;;;;;3.20;2.90;;;15.20;1.00;;;;;;7366592;19;20018;-58
2022/06/03 03:41:55;;;;;;;5.28;2.95;;;15.20;1.00;;;;;;7363581;19;20018;-59
2022/06/03 03:45:00;;;;;;;2.70;2.50;;;15.60;1.00;;;;;;7362274;19;20119;-58
2022/06/03 03:48:01;;;;;;;4.13;2.95;;;16.00;1.00;;;;;;7365131;19;20014;-58
2022/06/03 03:50:57;;;;;;;4.05;3.00;;;15.70;1.00;;;;;;7363588;19;20026;-59
2022/06/03 03:53:54;;;;;;;4.53;2.80;;;15.80;1.00;;;;;;7363485;19;20175;-59
2022/06/03 03:56:53;;;;;;;3.63;3.00;;;16.30;1.00;;;;;;7364292;19;20015;-59
2022/06/03 03:59:48;;;;;;;3.95;3.22;;;17.10;1.00;;;;;;7365567;19;20015;-59
2022/06/03 04:03:04;;;;;;;3.75;3.35;;;17.70;1.00;;;;;;7364775;19;20139;-59
2022/06/03 04:05:59;;;;;;;3.75;3.22;;;17.40;1.00;;;;;;7361075;19;20018;-59
2022/06/03 04:08:52;;;;;;;3.92;3.00;;;17.40;1.00;;;;;;7362898;19;20049;-59
2022/06/03 04:11:38;;;;;;;3.88;3.30;;;16.50;1.00;;;;;;7362662;19;20010;-58
2022/06/03 04:14:32;;;;;;;4.55;3.13;;;15.70;1.00;;;;;;7360788;19;20141;-59
2022/06/03 04:17:28;;;;;;;3.72;3.10;;;15.50;1.00;;;;;;7364655;19;20036;-58
2022/06/03 04:20:36;;;;;;;3.70;3.10;;;15.40;1.00;;;;;;7364453;19;20039;-59
2022/06/03 04:23:33;;;;;;;4.32;3.50;;;15.40;1.00;;;;;;7359568;19;20010;-59
2022/06/03 04:26:36;;;;;;;5.30;3.47;;;15.20;1.00;;;;;;7362794;19;20014;-58
2022/06/03 04:29:41;;;;;;;4.82;2.97;;;15.20;1.00;;;;;;7363773;19;20036;-58
2022/06/03 04:32:45;;;;;;;6.25;3.22;;;15.40;1.00;;;;;;7363323;19;20014;-59
2022/06/03 04:35:49;;;;;;;3.57;3.27;;;15.50;1.00;;;;;;7362696;19;20011;-59
2022/06/03 04:39:01;;;;;;;4.22;3.28;;;15.90;1.00;;;;;;7365180;19;20072;-59
2022/06/03 04:42:04;;;;;;;4.45;3.00;;;16.60;1.00;;;;;;7362253;19;20015;-58
2022/06/03 04:45:04;;;;;;;5.75;3.40;;;18.00;1.00;;;;;;7358019;19;20039;-59
2022/06/03 04:48:21;;;;;;;3.50;3.20;;;19.00;1.00;;;;;;7364416;19;20018;-59
2022/06/03 04:51:43;;;;;;;4.10;3.00;;;20.40;1.00;;;;;;7361957;19;20014;-59
2022/06/03 04:54:49;;;;;;;5.15;3.50;;;20.80;1.00;;;;;;7360677;19;20027;-59
2022/06/03 04:57:47;;;;;;;6.70;3.40;;;21.60;1.00;;;;;;7364436;19;20038;-58
2022/06/03 05:00:36;;;;;;;3.70;2.95;;;21.70;1.00;;;;;;7365096;19;20376;-59
2022/06/03 05:03:37;;;;;;;4.88;3.03;;;21.30;1.00;;;;;;7361888;19;20006;-59
2022/06/03 05:07:00;;;;;;;4.85;3.13;;;22.00;1.00;;;;;;7363077;19;20382;-58
2022/06/03 05:10:03;;;;;;;3.50;3.20;;;21.70;1.00;;;;;;7260029;19;2004263;-59
2022/06/03 05:13:29;;;;;;;3.40;3.10;;;21.40;1.00;;;;;;7362205;19;20023;-61
2022/06/03 05:16:34;;;;;;;4.95;3.65;;;22.00;1.00;;;;;;7359559;19;20014;-59
2022/06/03 05:19:34;;;;;;;4.13;3.65;;;21.00;1.00;;;;;;7365120;19;20006;-59
2022/06/03 05:22:21;;;;;;;3.67;3.20;;;19.30;1.00;;;;;;7363475;19;20022;-59
2022/06/03 05:25:19;;;;;;;5.28;3.50;;;19.50;1.00;;;;;;7359240;19;20072;-59
2022/06/03 05:28:17;;;;;;;3.65;3.22;;;19.20;1.00;;;;;;7364603;19;20011;-58
2022/06/03 05:31:11;;;;;;;8.98;3.30;;;17.90;1.00;;;;;;7361374;19;20006;-59
2022/06/03 05:34:10;;;;;;;4.70;3.42;;;17.80;1.00;;;;;;7359698;19;20740;-59
2022/06/03 05:37:15;;;;;;;6.10;3.70;;;18.60;1.00;;;;;;7361611;19;20022;-59
2022/06/03 05:40:14;;;;;;;7.50;4.05;;;20.40;1.00;;;;;;7362325;19;20036;-58
2022/06/03 05:43:09;;;;;;;7.43;3.88;;;21.10;1.00;;;;;;7358448;19;20017;-59
2022/06/03 05:46:10;;;;;;;4.28;3.88;;;21.50;1.00;;;;;;7358648;19;20010;-59
2022/06/03 05:48:51;;;;;;;6.57;4.15;;;21.90;1.00;;;;;;7363874;19;20122;-59
2022/06/03 05:51:48;;;;;;;9.27;4.85;;;21.30;1.00;;;;;;7383508;19;20048;-58
2022/06/03 05:54:32;;;;;;;9.40;4.97;;;22.10;1.00;;;;;;7356953;19;20135;-58
2022/06/03 05:57:15;;;;;;;6.28;5.05;;;22.90;1.00;;;;;;7361701;19;20007;-58
2022/06/03 06:00:00;;;;;;;6.63;5.00;;;22.70;1.00;;;;;;7364392;19;20006;-59
2022/06/03 06:02:38;;;;;;;8.90;6.32;;;22.40;1.00;;;;;;7367448;19;20453;-59
2022/06/03 06:05:27;;;;;;;10.13;6.00;;;21.70;1.00;;;;;;7367723;19;20082;-59
2022/06/03 06:08:09;;;;;;;7.75;5.65;;;21.10;1.00;;;;;;7366995;19;20019;-59
2022/06/03 06:10:50;;;;;;;7.22;6.53;;;20.40;1.00;;;;;;7368656;19;20009;-59
2022/06/03 06:13:52;;;;;;;7.70;6.15;;;19.90;1.00;;;;;;7368798;19;20033;-59
2022/06/03 06:16:33;;;;;;;7.60;6.35;;;19.80;1.00;;;;;;7369455;19;20131;-58
2022/06/03 06:19:07;;;;;;;8.38;6.35;;;20.20;1.00;;;;;;7370879;19;20010;-60
2022/06/03 06:22:02;;;;;;;7.22;5.38;;;19.90;1.00;;;;;;7366276;19;20023;-59
2022/06/03 06:25:04;;;;;;;9.75;6.20;;;20.40;1.00;;;;;;7373993;19;20022;-59
2022/06/03 06:28:04;;;;;;;8.80;5.65;;;20.50;1.00;;;;;;7370753;19;20015;-58
2022/06/03 06:30:56;;;;;;;8.77;6.50;;;21.00;1.00;;;;;;7368320;19;20014;-61
2022/06/03 06:33:50;;;;;;;6.90;5.63;;;21.90;1.00;;;;;;7389951;19;20011;-59
2022/06/03 06:36:55;;;;;;;7.90;6.07;;;21.50;1.00;;;;;;7367471;19;20010;-60
2022/06/03 06:39:39;;;;;;;6.80;5.72;;;22.00;1.00;;;;;;7369124;19;20014;-59
2022/06/03 06:42:23;;;;;;;12.53;5.97;;;22.00;1.00;;;;;;7367023;19;20010;-59
2022/06/03 06:45:04;;;;;;;9.20;6.10;;;22.20;1.00;;;;;;7363979;19;20252;-59
2022/06/03 06:47:40;;;;;;;9.57;5.45;;;21.60;1.00;;;;;;7368836;19;20041;-58
2022/06/03 06:50:23;;;;;;;7.90;5.55;;;21.90;1.00;;;;;;7367865;19;20007;-59
2022/06/03 06:53:04;;;;;;;6.13;5.53;;;21.70;1.00;;;;;;7361472;19;20006;-60
2022/06/03 06:55:51;;;;;;;8.25;5.90;;;21.30;1.00;;;;;;7364202;19;20473;-59
2022/06/03 06:58:42;;;;;;;8.07;5.90;;;21.30;1.00;;;;;;7368931;19;20014;-59
2022/06/03 07:01:15;;;;;;;7.57;5.70;;;21.60;1.00;;;;;;7365988;19;20056;-59
2022/06/03 07:04:01;;;;;;;10.07;6.20;;;21.40;1.00;;;;;;7363190;19;20010;-60
2022/06/03 07:06:43;;;;;;;6.18;5.57;;;21.40;1.00;;;;;;7385788;19;20025;-63
2022/06/03 07:09:34;;;;;;;7.97;6.03;;;21.90;1.00;;;;;;7390584;19;20470;-59
2022/06/03 07:12:10;;;;;;;8.23;5.72;;;21.60;1.00;;;;;;7362572;19;20056;-59
2022/06/03 07:14:53;;;;;;;7.95;5.75;;;21.80;1.00;;;;;;7362903;19;20021;-60
2022/06/03 07:20:23;;;;;;;6.25;5.28;;;22.00;1.00;;;;;;7364148;19;20468;-59
2022/06/03 07:22:59;;;;;;;6.20;5.43;;;22.30;1.00;;;;;;7362198;19;21380;-60
2022/06/03 07:25:33;;;;;;;8.18;5.88;;;22.00;1.00;;;;;;7363934;19;20082;-59
2022/06/03 07:28:12;;;;;;;12.30;5.32;;;22.00;1.00;;;;;;7367817;19;20060;-60
2022/06/03 07:30:46;;;;;;;9.50;6.20;;;22.90;1.00;;;;;;7364668;19;20011;-59
2022/06/03 07:33:23;;;;;;;7.43;5.63;;;22.60;1.00;;;;;;7384369;19;20098;-59
2022/06/03 07:35:57;;;;;;;5.70;5.15;;;22.30;1.00;;;;;;7363312;19;20015;-59
2022/06/03 07:38:34;;;;;;;;;;;22.70;1.00;;;;;;7367891;19;20010;-59
2022/06/03 07:41:08;;;;;;;5.47;4.97;;;22.90;1.00;;;;;;7364462;19;19918;-60
2022/06/03 07:43:42;;;;;;;;;;;23.30;1.00;;;;;;7364429;19;20114;-60
2022/06/03 07:46:16;;;;;;;9.07;5.07;;;23.40;1.00;;;;;;7366607;19;19918;-59
2022/06/03 07:48:47;;;;;;;7.55;5.53;;;23.40;1.00;;;;;;7367675;19;20014;-60
2022/06/03 07:51:23;;;;;;;7.60;5.03;;;23.30;1.00;;;;;;7385470;19;20011;-59
2022/06/03 07:54:02;;;;;;;10.68;4.88;;;22.70;1.00;;;;;;7361095;19;20015;-59
2022/06/03 07:56:37;;;;;;;8.07;4.68;;;22.80;1.00;;;;;;7365268;19;20017;-59
2022/06/03 07:59:10;;;;;;;8.35;5.22;;;23.30;1.00;;;;;;7366649;19;20109;-59
2022/06/03 08:01:43;;;;;;;9.45;5.63;;;22.90;1.00;;;;;;7363968;19;20011;-59
2022/06/03 08:04:27;;;;;;;6.35;5.40;;;22.60;1.00;;;;;;7361045;19;20504;-60
2022/06/03 08:12:34;;;;;;;5.80;4.88;;;22.80;1.00;;;;;;7385639;19;20040;-60
2022/06/03 08:15:16;;;;;;;9.10;5.00;;;23.00;1.00;;;;;;7363456;19;20472;-59
2022/06/03 08:17:49;;;;;;;5.53;5.00;;;23.70;1.00;;;;;;7366709;19;20017;-60
2022/06/03 08:20:25;;;;;;;5.72;5.18;;;23.30;1.00;;;;;;7364009;19;20013;-60
2022/06/03 08:22:56;;;;;;;8.90;6.18;;;23.30;1.00;;;;;;7359863;19;20074;-59
2022/06/03 08:25:32;;;;;;;7.07;4.50;;;23.70;1.00;;;;;;7363277;19;20378;-59
2022/06/03 08:28:06;;;;;;;5.10;4.35;;;24.40;1.00;;;;;;7366436;19;20079;-59
2022/06/03 08:30:36;;;;;;;4.70;4.20;;;24.40;1.00;;;;;;7363381;19;20019;-59
2022/06/03 08:33:09;;;;;;;6.25;4.30;;;24.70;1.00;;;;;;7382313;19;20045;-60
2022/06/03 08:35:44;;;;;;;7.30;4.28;;;24.40;1.00;;;;;;7361551;19;20015;-60
2022/06/03 08:38:17;;;;;;;5.40;4.32;;;24.40;1.00;;;;;;7366645;19;20018;-60
2022/06/03 08:41:00;;;;;;;6.47;3.70;;;24.10;1.00;;;;;;7364877;19;20093;-60
2022/06/03 08:43:42;;;;;;;4.03;3.47;;;24.20;1.00;;;;;;7362408;19;20013;-59
2022/06/03 08:46:17;;;;;;;5.13;3.75;;;24.70;1.00;;;;;;7362942;19;20014;-59
2022/06/03 08:48:49;;;;;;;5.72;4.47;;;24.20;1.00;;;;;;7364866;19;20101;-60
2022/06/03 08:51:23;;;;;;;6.53;3.45;;;24.30;1.00;;;;;;7381720;19;20573;-60
2022/06/03 08:54:00;;;;;;;4.90;4.22;;;24.50;1.00;;;;;;7359324;19;20020;-59
2022/06/03 08:56:38;;;;;;;5.05;4.00;;;24.30;1.00;;;;;;7360929;19;20596;-60
2022/06/03 08:59:15;;;;;;;8.40;3.70;;;24.70;1.00;;;;;;7365375;19;20086;-59
2022/06/03 09:01:51;;;;;;;6.72;3.83;;;24.50;1.00;;;;;;7359998;19;20006;-60
2022/06/03 09:04:30;;;;;;;5.43;3.83;;;24.60;1.00;;;;;;7358328;19;20081;-59
2022/06/03 09:07:07;;;;;;;4.07;3.67;;;24.30;1.00;;;;;;7361782;19;20018;-59
2022/06/03 09:09:44;;;;;;;4.35;3.53;;;24.30;1.00;;;;;;7362282;19;20017;-60
2022/06/03 09:12:38;;;;;;;5.60;4.13;;;24.60;1.00;;;;;;7381748;19;20084;-60
2022/06/03 09:15:12;;;;;;;4.43;3.97;;;24.80;1.00;;;;;;7362384;19;20359;-61
2022/06/03 09:17:45;;;;;;;8.18;3.58;;;24.90;1.00;;;;;;7365252;19;20010;-58
2022/06/03 09:20:19;;;;;;;5.35;3.90;;;25.00;1.00;;;;;;7362422;19;20029;-60
2022/06/03 09:22:50;;;;;;;;;;;24.90;1.00;;;;;;7359564;19;20092;-58
2022/06/03 09:25:22;;;;;;;3.80;3.38;;;25.10;1.00;;;;;;7362195;19;19958;-59
2022/06/03 09:27:54;;;;;;;4.20;3.70;;;25.40;1.00;;;;;;7354704;19;20016;-59
2022/06/03 09:30:34;;;;;;;4.28;3.28;;;25.40;1.00;;;;;;7375710;19;20345;-60
2022/06/03 09:33:06;;;;;;;6.20;3.70;;;25.10;1.00;;;;;;7351589;19;20018;-59
2022/06/03 09:35:40;;;;;;;4.80;2.95;;;25.30;1.00;;;;;;7359153;19;20018;-60
2022/06/03 09:38:11;;;;;;;6.20;3.50;;;25.70;1.00;;;;;;7361890;19;20082;-59
2022/06/03 09:40:44;;;;;;;6.35;3.40;;;25.90;1.00;;;;;;7360682;19;20048;-60
2022/06/03 09:43:22;;;;;;;4.32;3.03;;;25.50;1.00;;;;;;7353882;19;20078;-63
2022/06/03 09:45:54;;;;;;;7.55;2.97;;;25.90;1.00;;;;;;7358118;19;20039;-61
2022/06/03 09:48:27;;;;;;;6.03;2.90;;;26.50;1.00;;;;;;7383310;19;20022;-60
2022/06/03 09:51:00;;;;;;;5.05;3.33;;;26.40;1.00;;;;;;7360137;19;20097;-60
2022/06/03 09:53:35;;;;;;;3.65;2.80;;;26.50;1.00;;;;;;7355073;19;20094;-59
2022/06/03 09:56:09;;;;;;;4.70;2.17;;;26.50;1.00;;;;;;7357244;19;20014;-60
2022/06/03 09:58:43;;;;;;;4.75;3.00;;;26.70;1.00;;;;;;7361633;19;20086;-60
2022/06/03 10:01:13;;;;;;;4.13;3.00;;;26.40;1.00;;;;;;7358042;19;20819;-59
2022/06/03 10:03:43;;;;;;;3.20;2.90;;;26.50;1.00;;;;;;7356156;19;20007;-60
2022/06/03 10:06:43;;;;;;;3.58;3.05;;;27.10;1.00;;;;;;7380758;19;20018;-59
2022/06/03 10:14:32;;;;;;;3.35;3.00;;;27.00;1.00;;;;;;7354100;19;20090;-59
2022/06/03 10:17:02;;;;;;;3.13;2.67;;;26.50;1.00;;;;;;7358741;19;20482;-59
2022/06/03 10:19:32;;;;;;;3.90;2.58;;;26.60;1.00;;;;;;7360566;19;20055;-60
2022/06/03 10:22:02;;;;;;;2.60;2.40;;;26.80;1.00;;;;;;7357009;19;20025;-59
2022/06/03 10:24:34;;;;;;;3.60;2.78;;;27.00;1.00;;;;;;7363370;19;20021;-60
2022/06/03 10:27:07;;;;;;;3.00;2.42;;;26.90;1.00;;;;;;7379843;19;20015;-60
2022/06/03 10:29:52;;;;;;;3.38;2.45;;;26.80;1.00;;;;;;7362368;19;20015;-60
2022/06/03 10:32:24;;;;;;;2.97;2.58;;;27.10;1.00;;;;;;7356656;19;20054;-59
2022/06/03 10:34:58;;;;;;;3.25;2.40;;;27.50;1.00;;;;;;7353965;19;20007;-59
2022/06/03 10:37:28;;;;;;;3.63;2.17;;;27.90;1.00;;;;;;7358334;19;20015;-58
2022/06/03 10:39:58;;;;;;;4.50;2.90;;;28.30;1.00;;;;;;7358006;19;20030;-60
2022/06/03 10:42:30;;;;;;;4.72;2.85;;;27.80;1.00;;;;;;7380692;19;20015;-60
2022/06/03 10:45:03;;;;;;;3.72;2.92;;;27.80;1.00;;;;;;7355213;19;20022;-60
2022/06/03 10:47:38;;;;;;;4.05;2.67;;;27.90;1.00;;;;;;7359912;19;20043;-61
2022/06/03 10:50:13;;;;;;;2.78;2.58;;;27.50;1.00;;;;;;7360043;19;20077;-60
2022/06/03 11:01:16;;;;;;;6.63;2.72;;;27.90;1.00;;;;;;7367012;19;20040;-60
2022/06/03 11:03:52;;;;;;;7.07;3.22;;;27.90;1.00;;;;;;7361298;19;20110;-59
2022/06/03 11:06:27;;;;;;;4.55;3.00;;;27.60;1.00;;;;;;7387843;19;20033;-60
2022/06/03 11:08:59;;;;;;;5.35;2.75;;;27.20;1.00;;;;;;7368844;19;20024;-60
2022/06/03 11:11:48;;;;;;;5.88;3.15;;;27.00;1.00;;;;;;7364359;19;20093;-60
2022/06/03 11:14:27;;;;;;;5.45;3.17;;;26.70;1.00;;;;;;7363062;19;20015;-59
2022/06/03 11:17:08;;;;;;;5.97;3.00;;;26.60;1.00;;;;;;7366886;19;20009;-59
2022/06/03 11:19:43;;;;;;;4.03;2.92;;;26.40;1.00;;;;;;7369549;19;20006;-59
2022/06/03 11:22:18;;;;;;;5.20;3.05;;;26.20;1.00;;;;;;7366617;19;20190;-59
2022/06/03 11:24:53;;;;;;;3.97;3.15;;;26.10;1.00;;;;;;7362452;19;20027;-60
2022/06/03 11:27:28;;;;;;;6.25;3.13;;;26.00;1.00;;;;;;7388686;19;20077;-60
2022/06/03 11:30:02;;;;;;;6.05;3.00;;;25.70;1.00;;;;;;7368967;19;20382;-60
2022/06/03 11:32:38;;;;;;;6.45;3.83;;;25.60;1.00;;;;;;7362118;19;20013;-60
2022/06/03 11:35:14;;;;;;;7.45;3.20;;;25.50;1.00;;;;;;7363662;19;20007;-62
2022/06/03 11:37:52;;;;;;;4.32;3.13;;;25.40;1.00;;;;;;7368116;19;20017;-59
2022/06/03 11:40:31;;;;;;;6.78;3.78;;;25.40;1.00;;;;;;7368741;19;20010;-60
2022/06/03 11:43:06;;;;;;;3.88;3.33;;;25.40;1.00;;;;;;7361386;19;20077;-59
2022/06/03 11:45:50;;;;;;;5.00;3.10;;;25.20;1.00;;;;;;7364396;19;20501;-58
2022/06/03 11:48:30;;;;;;;6.55;3.38;;;25.20;1.00;;;;;;7388735;19;20011;-60
2022/06/03 11:51:01;;;;;;;4.53;3.22;;;25.20;1.00;;;;;;7367244;19;20081;-60
2022/06/03 11:53:34;;;;;;;3.22;2.92;;;25.10;1.00;;;;;;7360553;19;20015;-60
2022/06/03 11:56:06;;;;;;;4.28;3.42;;;25.10;1.00;;;;;;7364709;19;20037;-59
2022/06/03 11:58:54;;;;;;;3.65;2.88;;;25.20;1.00;;;;;;7364680;19;20010;-60
2022/06/03 12:01:30;;;;;;;5.05;3.25;;;25.10;1.00;;;;;;7349952;19;20007;-59
2022/06/03 12:04:11;;;;;;;5.88;3.25;;;25.10;1.00;;;;;;7361933;19;20026;-59
2022/06/03 12:06:45;;;;;;;7.30;4.47;;;25.10;1.00;;;;;;7365615;19;20022;-59
2022/06/03 12:09:31;;;;;;;5.60;3.38;;;24.90;1.00;;;;;;7389780;19;20171;-60
2022/06/03 12:14:50;;;;;;;8.35;3.35;;;24.70;1.00;;;;;;7360858;19;20003;-60
2022/06/03 12:17:32;;;;;;;6.75;3.80;;;24.80;1.00;;;;;;7365007;19;20019;-60
2022/06/03 12:20:36;;;;;;;5.82;3.88;;;25.10;1.00;;;;;;7366660;19;20031;-60
2022/06/03 12:23:36;;;;;;;6.43;4.35;;;25.40;1.00;;;;;;7360908;19;20018;-60
2022/06/03 12:26:12;;;;;;;5.13;3.88;;;25.60;1.00;;;;;;7364544;19;20147;-60
2022/06/03 12:28:47;;;;;;;8.68;4.00;;;25.70;1.00;;;;;;7367041;19;20014;-59
2022/06/03 12:31:35;;;;;;;4.35;3.60;;;26.00;1.00;;;;;;7365269;19;20078;-59
2022/06/03 12:34:20;;;;;;;4.30;3.80;;;26.10;1.00;;;;;;7359916;19;20486;-60
2022/06/03 12:37:03;;;;;;;4.50;3.50;;;26.30;1.00;;;;;;7364269;19;20035;-60
2022/06/03 12:39:34;;;;;;;5.10;3.63;;;26.30;1.00;;;;;;7373160;19;20025;-60
2022/06/03 12:42:11;;;;;;;4.88;3.70;;;26.30;1.00;;;;;;7385362;19;20021;-60
2022/06/03 12:45:15;;;;;;;7.68;3.47;;;26.40;1.00;;;;;;7360464;19;20018;-60
2022/06/03 12:47:50;;;;;;;6.07;3.67;;;26.40;1.00;;;;;;7365530;19;20031;-59
2022/06/03 12:50:39;;;;;;;5.10;3.65;;;26.50;1.00;;;;;;7364953;19;20039;-60
2022/06/03 12:53:40;;;;;;;6.80;3.90;;;26.50;1.00;;;;;;7358856;19;20105;-61
2022/06/03 12:56:45;;;;;;;8.45;3.50;;;26.60;1.00;;;;;;7364196;19;20035;-61
2022/06/03 12:59:31;;;;;;;7.40;3.42;;;26.50;1.00;;;;;;7362132;19;20060;-61
2022/06/03 13:02:11;;;;;;;6.55;3.35;;;26.10;1.00;;;;;;7360902;19;20002;-61
2022/06/03 13:05:03;;;;;;;5.53;3.42;;;26.20;1.00;;;;;;7368047;19;20023;-59
2022/06/03 13:07:39;;;;;;;6.22;3.50;;;26.20;1.00;;;;;;7368381;19;20020;-60
2022/06/03 13:10:28;;;;;;;6.10;3.50;;;26.10;1.00;;;;;;7367773;19;20014;-60
2022/06/03 13:13:19;;;;;;;6.80;3.63;;;26.10;1.00;;;;;;7367338;19;20454;-60
2022/06/03 13:15:51;;;;;;;9.48;3.55;;;26.10;1.00;;;;;;7367547;19;20035;-59
2022/06/03 13:18:42;;;;;;;6.38;3.33;;;25.90;1.00;;;;;;7391338;19;20015;-60
2022/06/03 13:21:19;;;;;;;4.38;3.97;;;25.60;1.00;;;;;;7368898;19;20010;-60
2022/06/03 13:23:58;;;;;;;4.90;3.40;;;25.40;1.00;;;;;;7368017;19;20017;-60
2022/06/03 13:26:53;;;;;;;5.65;3.72;;;25.30;1.00;;;;;;7366031;19;20412;-60
2022/06/03 13:29:55;;;;;;;9.30;4.25;;;25.20;1.00;;;;;;7366972;19;20011;-60
2022/06/03 13:33:02;;;;;;;6.55;4.55;;;25.20;1.00;;;;;;7356467;19;20051;-60
2022/06/03 13:35:34;;;;;;;5.15;4.18;;;25.20;1.00;;;;;;7357115;19;20498;-60
2022/06/03 13:38:19;;;;;;;5.18;4.18;;;25.20;1.00;;;;;;7356754;19;20390;-60
2022/06/03 13:44:23;;;;;;;8.00;4.68;;;25.00;1.00;;;;;;7362220;19;20044;-61
2022/06/03 13:46:58;;;;;;;9.18;4.68;;;24.70;1.00;;;;;;7363342;19;20036;-61
2022/06/03 13:49:30;;;;;;;5.40;4.38;;;24.50;1.00;;;;;;7364911;19;20010;-60
2022/06/03 13:52:08;;;;;;;6.40;4.65;;;24.10;1.00;;;;;;7359666;19;20022;-60
2022/06/03 13:54:45;;;;;;;6.18;5.47;;;23.80;1.00;;;;;;7364655;19;20018;-60
2022/06/03 13:57:30;;;;;;;8.00;5.65;;;23.80;1.00;;;;;;7384017;19;20366;-61
2022/06/03 14:00:24;;;;;;;6.22;5.35;;;23.80;1.00;;;;;;7365051;19;20010;-59
2022/06/03 14:02:58;;;;;;;10.20;5.60;;;23.70;1.00;;;;;;7361556;19;20018;-59
2022/06/03 14:05:35;;;;;;;6.28;5.40;;;23.60;1.00;;;;;;7363454;19;20015;-60
2022/06/03 14:08:16;;;;;;;6.57;5.97;;;23.70;1.00;;;;;;7364063;19;20010;-59
2022/06/03 14:10:51;;;;;;;5.75;4.95;;;23.90;1.00;;;;;;7359194;19;20322;-60
2022/06/03 14:13:33;;;;;;;8.00;5.10;;;24.00;1.00;;;;;;7362866;19;20023;-59
2022/06/03 14:16:10;;;;;;;6.35;4.85;;;23.90;1.00;;;;;;7362948;19;20087;-60
2022/06/03 14:18:49;;;;;;;5.20;4.53;;;24.10;1.00;;;;;;7363637;19;20105;-59
2022/06/03 14:21:46;;;;;;;5.30;4.80;;;24.20;1.00;;;;;;7362017;19;20354;-59
2022/06/03 14:24:24;;;;;;;5.60;4.32;;;24.30;1.00;;;;;;7390241;19;20014;-60
2022/06/03 14:27:03;;;;;;;7.50;6.72;;;24.20;1.00;;;;;;7367670;19;20014;-59
2022/06/03 14:29:37;;;;;;;7.85;6.47;;;24.20;1.00;;;;;;7370328;19;20822;-60
2022/06/03 14:32:13;;;;;;;8.98;6.53;;;24.10;1.00;;;;;;7362934;19;20029;-59
2022/06/03 14:34:48;;;;;;;6.78;6.07;;;24.20;1.00;;;;;;7371492;19;20040;-61
2022/06/03 14:37:25;;;;;;;8.20;5.05;;;24.20;1.00;;;;;;7368297;19;20033;-59
2022/06/03 14:40:07;;;;;;;5.47;4.97;;;24.20;1.00;;;;;;7391150;19;20466;-59
2022/06/03 14:42:41;;;;;;;5.63;4.78;;;24.20;1.00;;;;;;7385252;19;20046;-59
2022/06/03 14:45:16;;;;;;;6.60;5.22;;;24.20;1.00;;;;;;7392424;19;20045;-61
2022/06/03 14:47:54;;;;;;;8.93;7.47;;;24.20;1.00;;;;;;7386807;19;20090;-59
2022/06/03 14:50:27;;;;;;;10.18;7.85;;;24.20;1.00;;;;;;7367260;19;20485;-60
2022/06/03 14:53:00;;;;;;;8.63;6.57;;;24.40;1.00;;;;;;7365597;19;20082;-60
2022/06/03 14:55:34;;;;;;;10.45;5.10;;;24.50;1.00;;;;;;7368555;19;20100;-59
2022/06/03 14:58:14;;;;;;;7.40;4.95;;;24.50;1.00;;;;;;7369588;19;20014;-59
2022/06/03 15:01:00;;;;;;;8.43;5.35;;;24.40;1.00;;;;;;7365077;19;20010;-59
2022/06/03 15:03:38;;;;;;;5.70;4.68;;;24.60;1.00;;;;;;7370440;19;20015;-60
2022/06/03 15:06:12;;;;;;;6.60;4.97;;;24.90;1.00;;;;;;7366671;19;20029;-59
2022/06/03 15:08:47;;;;;;;5.18;4.40;;;25.50;1.00;;;;;;7391103;19;20022;-60